Terminal Aerodrome Forecast
Issued by NWS Tampa Bay Area, FL

Home | Current Version | Previous Version | Text Only | Print | Product List | Glossary Off
Versions: 1 2 3 4 5 6 7 8 9 10 11 12 13 14 15 16 17 18

000
FTUS42 KTBW 302347 AAA
TAFSRQ
TAF AMD
KSRQ 302347Z 3100/3124 25006KT P6SM VCSH SCT025 BKN040 BKN250
      TEMPO 3100/3101 VRB15G30KT 3SM TSRA BKN015CB
     FM310300 23005KT P6SM VCTS SCT035CB BKN250
     FM311200 21006KT P6SM SHRA SCT025 BKN090
     FM311600 22010KT P6SM SHRA BKN090 BKN250
     FM312100 23008KT P6SM VCTS SCT035CB BKN250=

USA.gov is the U.S. government's official web portal to all federal, state and local government web resources and services.